Time;durP1;ratioP1;P1;durP2;ratioP2;P2;SDS_P1;SDS_P2;PMS_P1;PMS_P2;Temp;Humidity;BMP_temperature;BMP_pressure;BME280_temperature;BME280_humidity;BME280_pressure;Samples;Min_cycle;Max_cycle;Signal;HPM_P1;HPM_P2
2023/09/05 00:00:10;;;;;;;5.23;2.07;;;;;;;;;;4967999;28;20451;-84
2023/09/05 00:02:39;;;;;;;2.53;2.17;;;;;;;;;;4964861;28;20415;-83
2023/09/05 00:05:08;;;;;;;7.80;2.10;;;;;;;;;;4967076;28;20565;-84
2023/09/05 00:07:35;;;;;;;2.90;1.53;;;;;;;;;;4968411;28;20826;-83
2023/09/05 00:10:01;;;;;;;3.53;2.43;;;;;;;;;;4965686;28;20460;-83
2023/09/05 00:12:27;;;;;;;2.70;1.90;;;;;;;;;;4966969;28;20437;-83
2023/09/05 00:14:54;;;;;;;2.80;1.90;;;;;;;;;;4966526;28;20418;-82
2023/09/05 00:17:20;;;;;;;2.80;1.90;;;;;;;;;;4966305;28;20409;-83
2023/09/05 00:19:46;;;;;;;3.83;2.20;;;;;;;;;;4965875;28;20480;-83
2023/09/05 00:22:12;;;;;;;2.27;1.63;;;;;;;;;;4973746;28;20544;-83
2023/09/05 00:24:38;;;;;;;3.00;2.33;;;;;;;;;;4975729;28;20471;-83
2023/09/05 00:27:11;;;;;;;3.33;2.20;;;;;;;;;;4973584;28;20478;-83
2023/09/05 00:29:38;;;;;;;3.17;2.20;;;;;;;;;;4954370;28;20425;-83
2023/09/05 00:32:04;;;;;;;3.53;1.83;;;;;;;;;;4967888;28;20411;-79
2023/09/05 00:34:41;;;;;;;4.23;2.83;;;;;;;;;;4967152;28;20429;-79
2023/09/05 00:37:08;;;;;;;4.63;3.17;;;;;;;;;;4967314;28;20412;-83
2023/09/05 00:39:34;;;;;;;3.97;2.87;;;;;;;;;;4973062;28;20788;-81
2023/09/05 00:42:05;;;;;;;4.00;2.43;;;;;;;;;;4968304;28;20486;-80
2023/09/05 00:44:32;;;;;;;4.30;2.73;;;;;;;;;;4967078;28;20908;-80
2023/09/05 00:47:00;;;;;;;4.50;3.17;;;;;;;;;;4967253;28;20413;-80
2023/09/05 00:49:30;;;;;;;3.50;2.33;;;;;;;;;;4968080;28;20520;-81
2023/09/05 00:52:00;;;;;;;4.20;2.50;;;;;;;;;;4966285;28;20749;-83
2023/09/05 00:54:25;;;;;;;5.50;3.40;;;;;;;;;;4974729;28;20412;-87
2023/09/05 00:56:52;;;;;;;102.93;86.53;;;;;;;;;;4975306;28;21002;-85
2023/09/05 00:59:18;;;;;;;4.33;3.20;;;;;;;;;;4981450;28;20422;-81
2023/09/05 01:01:44;;;;;;;3.43;2.70;;;;;;;;;;4978244;28;20451;-84
2023/09/05 01:04:10;;;;;;;3.13;2.00;;;;;;;;;;4979422;28;20469;-81
2023/09/05 01:06:46;;;;;;;3.40;2.60;;;;;;;;;;4974374;28;20424;-81
2023/09/05 01:09:22;;;;;;;3.73;2.60;;;;;;;;;;4980173;28;20431;-81
2023/09/05 01:11:48;;;;;;;3.70;2.70;;;;;;;;;;4959907;28;20930;-81
2023/09/05 01:14:14;;;;;;;3.80;2.93;;;;;;;;;;4966809;28;20433;-81
2023/09/05 01:16:43;;;;;;;2.60;2.00;;;;;;;;;;4967717;28;20410;-81
2023/09/05 01:19:12;;;;;;;3.70;2.03;;;;;;;;;;4972059;28;20416;-81
2023/09/05 01:21:40;;;;;;;4.00;2.37;;;;;;;;;;4970114;28;20409;-81
2023/09/05 01:24:20;;;;;;;4.23;2.73;;;;;;;;;;4972627;28;20468;-81
2023/09/05 01:26:46;;;;;;;2.97;1.90;;;;;;;;;;4965895;28;20418;-83
2023/09/05 01:29:15;;;;;;;3.10;2.60;;;;;;;;;;4962739;28;20409;-86
2023/09/05 01:31:42;;;;;;;3.20;1.60;;;;;;;;;;4966655;28;20412;-81
2023/09/05 01:34:08;;;;;;;2.77;2.30;;;;;;;;;;4966110;28;20753;-83
2023/09/05 01:36:34;;;;;;;5.03;3.63;;;;;;;;;;4963519;28;20413;-81
2023/09/05 01:39:00;;;;;;;3.20;2.23;;;;;;;;;;4966670;28;20408;-92
2023/09/05 01:41:25;;;;;;;3.37;2.13;;;;;;;;;;4963405;28;20416;-82
2023/09/05 01:43:51;;;;;;;5.33;1.70;;;;;;;;;;4970157;28;20526;-82
2023/09/05 01:46:17;;;;;;;2.60;1.60;;;;;;;;;;4975779;28;20227;-81
2023/09/05 01:48:43;;;;;;;2.03;1.37;;;;;;;;;;4975795;28;20679;-82
2023/09/05 01:51:09;;;;;;;4.90;2.07;;;;;;;;;;4975696;28;20173;-81
2023/09/05 01:53:35;;;;;;;2.63;1.80;;;;;;;;;;4975605;28;20168;-81
2023/09/05 01:56:01;;;;;;;3.00;2.07;;;;;;;;;;4975196;28;20450;-82
2023/09/05 01:58:27;;;;;;;3.47;2.50;;;;;;;;;;4975499;28;20470;-81
2023/09/05 02:00:53;;;;;;;3.20;1.87;;;;;;;;;;4975518;28;20432;-81
2023/09/05 02:03:19;;;;;;;3.43;2.97;;;;;;;;;;4975336;28;20200;-81
2023/09/05 02:05:45;;;;;;;4.27;2.07;;;;;;;;;;4974118;28;20443;-81
2023/09/05 02:08:11;;;;;;;3.73;2.63;;;;;;;;;;4975360;28;20416;-80
2023/09/05 02:10:37;;;;;;;2.50;1.90;;;;;;;;;;4975113;28;20227;-81
2023/09/05 02:13:03;;;;;;;2.60;1.83;;;;;;;;;;4974915;28;20421;-81
2023/09/05 02:15:29;;;;;;;2.90;2.50;;;;;;;;;;4975212;28;20582;-80
2023/09/05 02:17:55;;;;;;;5.07;2.30;;;;;;;;;;4975202;28;20412;-82
2023/09/05 02:20:22;;;;;;;3.30;2.03;;;;;;;;;;4975135;28;20198;-81
2023/09/05 02:22:48;;;;;;;2.60;1.67;;;;;;;;;;4975150;28;20412;-80
2023/09/05 02:25:14;;;;;;;2.00;1.70;;;;;;;;;;4974915;28;20475;-82
2023/09/05 02:27:40;;;;;;;1.83;1.60;;;;;;;;;;4973438;28;20180;-81
2023/09/05 02:30:07;;;;;;;3.60;1.90;;;;;;;;;;4974993;28;20433;-82
2023/09/05 02:32:33;;;;;;;4.67;2.20;;;;;;;;;;4974940;28;20733;-81
2023/09/05 02:34:59;;;;;;;2.97;1.80;;;;;;;;;;4974840;28;20430;-82
2023/09/05 02:37:25;;;;;;;3.27;1.67;;;;;;;;;;4974783;28;20188;-80
2023/09/05 02:39:52;;;;;;;4.93;1.87;;;;;;;;;;4974821;28;20420;-83
2023/09/05 02:42:18;;;;;;;2.97;1.53;;;;;;;;;;4974494;28;20544;-80
2023/09/05 02:44:44;;;;;;;3.23;2.00;;;;;;;;;;4974887;28;20516;-81
2023/09/05 02:47:10;;;;;;;2.53;1.60;;;;;;;;;;4974663;28;20888;-82
2023/09/05 02:49:36;;;;;;;2.43;1.83;;;;;;;;;;4974658;28;20423;-80
2023/09/05 02:52:01;;;;;;;3.23;2.37;;;;;;;;;;4973484;28;20420;-81
2023/09/05 02:54:30;;;;;;;4.80;2.50;;;;;;;;;;4974603;28;20439;-81
2023/09/05 02:56:56;;;;;;;2.63;2.20;;;;;;;;;;4974198;28;20416;-81
2023/09/05 02:59:22;;;;;;;3.50;1.70;;;;;;;;;;4974492;28;20963;-80
2023/09/05 03:01:48;;;;;;;2.00;1.77;;;;;;;;;;4974477;28;20415;-80
2023/09/05 03:04:15;;;;;;;4.97;2.00;;;;;;;;;;4974326;28;20968;-80
2023/09/05 03:06:41;;;;;;;3.17;1.80;;;;;;;;;;4974363;28;20403;-80
2023/09/05 03:09:07;;;;;;;2.67;2.20;;;;;;;;;;4974447;28;20482;-82
2023/09/05 03:11:33;;;;;;;3.53;2.30;;;;;;;;;;4973841;28;20471;-82
2023/09/05 03:13:59;;;;;;;3.20;1.60;;;;;;;;;;4974376;28;20412;-82
2023/09/05 03:16:25;;;;;;;2.60;2.30;;;;;;;;;;4974315;28;20493;-81
2023/09/05 03:18:51;;;;;;;3.27;2.10;;;;;;;;;;4974221;28;20419;-82
2023/09/05 03:21:17;;;;;;;2.70;1.70;;;;;;;;;;4974265;28;20413;-81
2023/09/05 03:23:43;;;;;;;3.03;1.97;;;;;;;;;;4974191;28;20461;-83
2023/09/05 03:26:09;;;;;;;3.60;1.90;;;;;;;;;;4973856;28;20420;-83
2023/09/05 03:28:39;;;;;;;3.43;2.20;;;;;;;;;;4974250;28;20470;-84
2023/09/05 03:31:05;;;;;;;3.20;2.07;;;;;;;;;;4974123;28;20174;-83
2023/09/05 03:33:31;;;;;;;4.23;2.77;;;;;;;;;;4974060;28;20509;-83
2023/09/05 03:35:57;;;;;;;3.93;1.27;;;;;;;;;;4974137;28;20422;-84
2023/09/05 03:38:23;;;;;;;2.60;1.60;;;;;;;;;;4978023;28;20418;-83
2023/09/05 03:40:49;;;;;;;3.37;2.13;;;;;;;;;;4977723;28;20448;-84
2023/09/05 03:43:15;;;;;;;3.17;2.23;;;;;;;;;;4977953;28;20707;-83
2023/09/05 03:45:41;;;;;;;2.10;1.67;;;;;;;;;;4977968;28;20456;-84
2023/09/05 03:48:07;;;;;;;3.57;2.43;;;;;;;;;;4977935;28;20582;-84
2023/09/05 03:50:32;;;;;;;3.67;1.60;;;;;;;;;;4977848;28;20415;-83
2023/09/05 03:52:58;;;;;;;2.70;2.47;;;;;;;;;;4977896;28;20472;-83
2023/09/05 03:55:24;;;;;;;2.90;1.97;;;;;;;;;;4977711;28;20470;-84
2023/09/05 03:57:50;;;;;;;3.40;1.80;;;;;;;;;;4977452;28;20190;-83
2023/09/05 04:00:16;;;;;;;4.17;2.33;;;;;;;;;;4977615;28;20417;-83
2023/09/05 04:02:42;;;;;;;3.87;3.10;;;;;;;;;;4977663;28;20418;-83
2023/09/05 04:05:08;;;;;;;3.20;1.90;;;;;;;;;;4977511;28;20480;-83
2023/09/05 04:07:35;;;;;;;3.43;2.37;;;;;;;;;;4977585;28;20445;-83
2023/09/05 04:10:01;;;;;;;4.90;2.37;;;;;;;;;;4977394;28;20474;-83
2023/09/05 04:12:26;;;;;;;3.30;2.60;;;;;;;;;;4977101;28;20465;-84
2023/09/05 04:14:52;;;;;;;3.70;2.60;;;;;;;;;;4977451;28;20183;-79
2023/09/05 04:17:18;;;;;;;4.43;2.90;;;;;;;;;;4977397;28;20174;-79
2023/09/05 04:19:44;;;;;;;3.30;1.80;;;;;;;;;;4976152;28;20425;-80
2023/09/05 04:22:10;;;;;;;3.80;2.80;;;;;;;;;;4977321;28;20168;-80
2023/09/05 04:24:36;;;;;;;3.80;2.20;;;;;;;;;;4977208;28;20968;-82
2023/09/05 04:27:02;;;;;;;3.20;2.20;;;;;;;;;;4970837;28;20174;-82
2023/09/05 04:29:28;;;;;;;3.60;2.07;;;;;;;;;;4958857;28;20422;-80
2023/09/05 04:31:55;;;;;;;2.13;1.57;;;;;;;;;;4957763;28;20406;-80
2023/09/05 04:34:21;;;;;;;2.07;1.60;;;;;;;;;;4957828;28;20426;-80
2023/09/05 04:36:47;;;;;;;2.87;2.23;;;;;;;;;;4957738;28;20895;-80
2023/09/05 04:39:13;;;;;;;3.93;2.10;;;;;;;;;;4957695;28;20425;-80
2023/09/05 04:41:40;;;;;;;2.50;2.30;;;;;;;;;;4957275;28;20175;-80
2023/09/05 04:44:06;;;;;;;4.03;1.63;;;;;;;;;;4957584;28;20997;-80
2023/09/05 04:46:37;;;;;;;4.13;2.53;;;;;;;;;;4958162;29;20447;-82
2023/09/05 04:49:03;;;;;;;5.00;2.97;;;;;;;;;;4956667;28;20766;-85
2023/09/05 04:51:29;;;;;;;2.83;1.60;;;;;;;;;;4957615;28;20404;-81
2023/09/05 04:53:55;;;;;;;3.20;1.80;;;;;;;;;;4957854;29;20904;-83
2023/09/05 04:56:21;;;;;;;5.97;2.10;;;;;;;;;;4955908;28;20489;-80
2023/09/05 04:58:49;;;;;;;4.27;2.10;;;;;;;;;;4969988;28;20425;-79
2023/09/05 05:01:17;;;;;;;6.43;2.30;;;;;;;;;;4976581;28;20415;-79
2023/09/05 05:03:43;;;;;;;3.20;2.73;;;;;;;;;;4976562;28;20458;-79
2023/09/05 05:06:09;;;;;;;2.63;2.20;;;;;;;;;;4976618;28;20421;-79
2023/09/05 05:08:35;;;;;;;4.20;2.40;;;;;;;;;;4976496;28;20416;-79
2023/09/05 05:11:05;;;;;;;3.83;2.57;;;;;;;;;;4974641;28;20224;-79
2023/09/05 05:13:30;;;;;;;4.17;2.37;;;;;;;;;;4976468;28;20425;-79
2023/09/05 05:15:56;;;;;;;5.83;3.10;;;;;;;;;;4976378;28;20522;-80
2023/09/05 05:18:22;;;;;;;6.40;2.77;;;;;;;;;;4976312;28;20420;-79
2023/09/05 05:20:48;;;;;;;2.83;2.00;;;;;;;;;;4976314;28;20744;-79
2023/09/05 05:23:14;;;;;;;5.87;2.70;;;;;;;;;;4975891;28;20419;-79
2023/09/05 05:25:40;;;;;;;4.93;3.00;;;;;;;;;;4975738;28;20458;-79
2023/09/05 05:28:06;;;;;;;6.83;2.87;;;;;;;;;;4976056;28;20810;-79
2023/09/05 05:30:38;;;;;;;4.03;2.27;;;;;;;;;;4976140;28;20423;-80
2023/09/05 05:33:04;;;;;;;3.33;3.03;;;;;;;;;;4976022;28;20438;-79
2023/09/05 05:35:30;;;;;;;9.40;4.27;;;;;;;;;;4975988;28;20427;-79
2023/09/05 05:37:56;;;;;;;3.90;3.20;;;;;;;;;;4975946;28;20417;-79
2023/09/05 05:40:22;;;;;;;8.13;3.80;;;;;;;;;;4975487;28;20424;-79
2023/09/05 05:42:48;;;;;;;6.20;4.73;;;;;;;;;;4975879;28;20412;-80
2023/09/05 05:45:14;;;;;;;5.37;3.87;;;;;;;;;;4975671;28;21063;-79
2023/09/05 05:47:40;;;;;;;5.33;4.80;;;;;;;;;;4974508;28;20809;-78
2023/09/05 05:50:06;;;;;;;3.87;3.00;;;;;;;;;;4975618;28;20428;-79
2023/09/05 05:52:32;;;;;;;4.17;3.47;;;;;;;;;;4975712;28;20171;-79
2023/09/05 05:54:58;;;;;;;5.10;3.37;;;;;;;;;;4975621;28;20425;-80
2023/09/05 05:57:24;;;;;;;5.10;3.67;;;;;;;;;;4975113;28;20421;-79
2023/09/05 05:59:50;;;;;;;4.63;3.50;;;;;;;;;;4975209;28;20423;-79
2023/09/05 06:02:16;;;;;;;5.47;2.53;;;;;;;;;;4965695;28;20202;-80
2023/09/05 06:04:42;;;;;;;5.77;2.90;;;;;;;;;;4965619;28;21071;-79
2023/09/05 06:07:08;;;;;;;3.40;2.67;;;;;;;;;;4965393;28;20183;-81
2023/09/05 06:09:34;;;;;;;4.50;3.03;;;;;;;;;;4966719;28;20536;-80
2023/09/05 06:12:00;;;;;;;3.53;2.87;;;;;;;;;;4964853;28;20173;-81
2023/09/05 06:14:26;;;;;;;4.63;3.20;;;;;;;;;;4966240;28;20470;-80
2023/09/05 06:16:51;;;;;;;3.43;2.67;;;;;;;;;;4964097;28;20426;-79
2023/09/05 06:19:17;;;;;;;5.07;2.60;;;;;;;;;;4965451;28;20463;-80
2023/09/05 06:21:45;;;;;;;4.00;3.60;;;;;;;;;;4965566;28;20178;-80
2023/09/05 06:24:11;;;;;;;3.57;2.80;;;;;;;;;;4963851;28;20837;-79
2023/09/05 06:26:38;;;;;;;3.60;3.30;;;;;;;;;;4964799;28;20416;-79
2023/09/05 06:29:04;;;;;;;4.70;2.90;;;;;;;;;;4965306;28;20179;-79
2023/09/05 06:31:30;;;;;;;3.03;2.73;;;;;;;;;;4962464;28;20913;-80
2023/09/05 06:33:56;;;;;;;3.93;2.50;;;;;;;;;;4965150;28;20182;-80
2023/09/05 06:36:22;;;;;;;6.80;2.67;;;;;;;;;;4964966;28;20435;-79
2023/09/05 06:38:48;;;;;;;3.17;2.20;;;;;;;;;;4963681;28;20184;-79
2023/09/05 06:41:15;;;;;;;3.90;2.77;;;;;;;;;;4964999;28;20446;-80
2023/09/05 06:43:41;;;;;;;5.20;3.40;;;;;;;;;;4964834;28;20467;-80
2023/09/05 06:46:08;;;;;;;3.87;2.90;;;;;;;;;;4963504;28;20464;-79
2023/09/05 06:48:35;;;;;;;4.73;3.57;;;;;;;;;;4970328;28;20194;-82
2023/09/05 06:51:01;;;;;;;3.50;3.20;;;;;;;;;;4966265;28;20407;-81
2023/09/05 06:53:30;;;;;;;5.70;2.97;;;;;;;;;;4966082;28;20415;-81
2023/09/05 06:55:56;;;;;;;4.10;2.43;;;;;;;;;;4965070;28;20191;-82
2023/09/05 06:58:23;;;;;;;5.13;2.80;;;;;;;;;;4967178;28;20458;-82
2023/09/05 07:00:53;;;;;;;5.87;2.67;;;;;;;;;;4963539;28;20408;-85
2023/09/05 07:03:19;;;;;;;6.53;3.37;;;;;;;;;;4968601;28;20419;-80
2023/09/05 07:05:46;;;;;;;4.20;2.77;;;;;;;;;;4962714;28;20442;-81
2023/09/05 07:08:12;;;;;;;4.30;3.63;;;;;;;;;;4963493;28;20413;-82
2023/09/05 07:10:38;;;;;;;9.10;3.70;;;;;;;;;;4965757;28;20467;-79
2023/09/05 07:13:04;;;;;;;3.57;2.97;;;;;;;;;;4969525;28;20187;-83
2023/09/05 07:15:30;;;;;;;3.63;3.27;;;;;;;;;;4969330;28;20459;-81
2023/09/05 07:17:56;;;;;;;3.40;3.10;;;;;;;;;;4974102;28;20441;-79
2023/09/05 07:20:22;;;;;;;3.33;2.83;;;;;;;;;;4974285;28;20188;-81
2023/09/05 07:22:48;;;;;;;3.30;2.50;;;;;;;;;;4974299;28;20404;-81
2023/09/05 07:25:14;;;;;;;3.70;3.03;;;;;;;;;;4973845;28;20482;-80
2023/09/05 07:27:43;;;;;;;3.70;2.80;;;;;;;;;;4974160;28;20404;-80
2023/09/05 07:30:09;;;;;;;4.00;2.90;;;;;;;;;;4974160;28;20440;-81
2023/09/05 07:32:36;;;;;;;3.93;2.70;;;;;;;;;;4974158;28;20407;-82
2023/09/05 07:35:03;;;;;;;3.33;3.03;;;;;;;;;;4974174;28;20439;-80
2023/09/05 07:37:29;;;;;;;4.83;2.93;;;;;;;;;;4974143;28;20807;-81
2023/09/05 07:39:55;;;;;;;5.63;4.27;;;;;;;;;;4974098;28;20419;-81
2023/09/05 07:42:21;;;;;;;3.90;2.50;;;;;;;;;;4973754;28;20255;-81
2023/09/05 07:44:46;;;;;;;3.57;3.20;;;;;;;;;;4973951;28;20525;-82
2023/09/05 07:47:12;;;;;;;3.13;2.80;;;;;;;;;;4974014;28;20581;-81
2023/09/05 07:49:40;;;;;;;3.23;2.83;;;;;;;;;;4974047;28;20652;-82
2023/09/05 07:52:07;;;;;;;4.23;3.17;;;;;;;;;;4974001;28;20698;-82
2023/09/05 07:54:35;;;;;;;3.60;2.27;;;;;;;;;;4973894;28;20905;-82
2023/09/05 07:57:01;;;;;;;5.87;3.90;;;;;;;;;;4973669;28;20416;-82
2023/09/05 07:59:27;;;;;;;4.03;3.03;;;;;;;;;;4973889;28;20435;-81
2023/09/05 08:01:54;;;;;;;4.63;2.60;;;;;;;;;;4973977;28;20543;-82
2023/09/05 08:04:20;;;;;;;4.27;2.70;;;;;;;;;;4973892;28;20222;-82
2023/09/05 08:06:47;;;;;;;2.40;2.20;;;;;;;;;;4972726;28;20495;-81
2023/09/05 08:09:13;;;;;;;3.40;2.90;;;;;;;;;;4973664;28;20263;-81
2023/09/05 08:11:39;;;;;;;3.10;2.80;;;;;;;;;;4973454;28;20507;-82
2023/09/05 08:14:05;;;;;;;3.20;3.00;;;;;;;;;;4973802;28;20546;-80
2023/09/05 08:16:31;;;;;;;4.27;3.30;;;;;;;;;;4973750;28;20660;-81
2023/09/05 08:18:57;;;;;;;3.43;2.40;;;;;;;;;;4973830;28;20211;-81
2023/09/05 08:21:26;;;;;;;3.13;2.70;;;;;;;;;;4973787;28;20412;-82
2023/09/05 08:23:52;;;;;;;3.67;2.77;;;;;;;;;;4976449;28;20200;-81
2023/09/05 08:26:18;;;;;;;3.90;2.47;;;;;;;;;;4976982;28;20416;-82
2023/09/05 08:28:45;;;;;;;3.73;2.33;;;;;;;;;;4977233;28;20916;-83
2023/09/05 08:31:11;;;;;;;5.63;3.10;;;;;;;;;;4977289;28;20175;-81
2023/09/05 08:33:37;;;;;;;5.50;3.73;;;;;;;;;;4977206;28;20762;-82
2023/09/05 08:36:08;;;;;;;3.67;2.87;;;;;;;;;;4977047;28;20419;-82
2023/09/05 08:38:37;;;;;;;2.80;2.50;;;;;;;;;;4977078;28;20419;-82
2023/09/05 08:41:03;;;;;;;4.10;3.70;;;;;;;;;;4976707;28;20823;-82
2023/09/05 08:43:29;;;;;;;3.00;2.60;;;;;;;;;;4976846;28;20893;-82
2023/09/05 08:45:55;;;;;;;4.87;2.80;;;;;;;;;;4976859;28;20423;-81
2023/09/05 08:48:21;;;;;;;3.33;3.03;;;;;;;;;;4976870;28;20180;-82
2023/09/05 08:50:48;;;;;;;2.37;2.17;;;;;;;;;;4976860;28;20946;-82
2023/09/05 08:53:15;;;;;;;3.07;2.40;;;;;;;;;;4976856;28;20499;-82
2023/09/05 08:55:42;;;;;;;2.50;1.80;;;;;;;;;;4976496;28;20547;-82
2023/09/05 08:58:12;;;;;;;2.80;2.60;;;;;;;;;;4976777;28;20817;-83
2023/09/05 09:00:38;;;;;;;5.13;2.47;;;;;;;;;;4976576;28;20439;-83
2023/09/05 09:03:06;;;;;;;2.43;2.10;;;;;;;;;;4976685;28;20408;-83
2023/09/05 09:05:32;;;;;;;2.70;2.40;;;;;;;;;;4976613;28;20564;-82
2023/09/05 09:07:58;;;;;;;2.10;1.90;;;;;;;;;;4976524;28;20408;-83
2023/09/05 09:10:24;;;;;;;3.63;1.73;;;;;;;;;;4976050;28;20228;-82
2023/09/05 09:12:54;;;;;;;1.90;1.80;;;;;;;;;;4976384;28;20168;-83
2023/09/05 09:15:20;;;;;;;2.30;1.80;;;;;;;;;;4976398;28;20169;-83
2023/09/05 09:17:47;;;;;;;4.33;1.93;;;;;;;;;;4975135;28;20438;-83
2023/09/05 09:20:13;;;;;;;2.80;2.50;;;;;;;;;;4976345;28;20444;-82
2023/09/05 09:22:40;;;;;;;2.23;1.80;;;;;;;;;;4976301;28;20424;-83
2023/09/05 09:25:14;;;;;;;2.57;1.80;;;;;;;;;;4975763;28;20566;-82
2023/09/05 09:27:42;;;;;;;2.90;2.03;;;;;;;;;;4976258;28;20408;-82
2023/09/05 09:30:08;;;;;;;1.80;1.30;;;;;;;;;;4976198;28;20511;-82
2023/09/05 09:32:34;;;;;;;2.00;1.67;;;;;;;;;;4976017;28;20743;-82
2023/09/05 09:35:00;;;;;;;2.20;1.83;;;;;;;;;;4975334;28;20455;-83
2023/09/05 09:37:27;;;;;;;4.90;1.97;;;;;;;;;;4976034;28;20546;-83
2023/09/05 09:39:59;;;;;;;3.93;1.90;;;;;;;;;;4975596;28;20416;-82
2023/09/05 09:42:25;;;;;;;2.17;1.97;;;;;;;;;;4975923;28;20495;-82
2023/09/05 09:44:52;;;;;;;2.40;2.10;;;;;;;;;;4975860;28;20482;-82
2023/09/05 09:47:18;;;;;;;2.80;1.97;;;;;;;;;;4975794;28;20447;-83
2023/09/05 09:49:47;;;;;;;1.93;1.60;;;;;;;;;;4975783;28;20412;-83
2023/09/05 09:52:15;;;;;;;3.10;2.20;;;;;;;;;;4975781;28;20408;-82
2023/09/05 09:54:44;;;;;;;6.50;2.70;;;;;;;;;;4975398;28;20916;-82
2023/09/05 09:57:12;;;;;;;2.50;2.30;;;;;;;;;;4974972;28;20445;-82
2023/09/05 09:59:43;;;;;;;3.63;2.40;;;;;;;;;;4975484;28;20420;-82
2023/09/05 10:02:10;;;;;;;3.30;2.63;;;;;;;;;;4975619;28;20416;-82
2023/09/05 10:04:36;;;;;;;1.83;1.70;;;;;;;;;;4975305;28;20475;-82
2023/09/05 10:07:06;;;;;;;5.07;2.00;;;;;;;;;;4975437;28;20408;-82
2023/09/05 10:09:35;;;;;;;3.33;1.73;;;;;;;;;;4974927;28;20216;-83
2023/09/05 10:12:02;;;;;;;1.60;1.50;;;;;;;;;;4975420;28;20454;-82
2023/09/05 10:14:30;;;;;;;3.10;1.90;;;;;;;;;;4975284;28;20420;-82
2023/09/05 10:16:57;;;;;;;2.87;1.83;;;;;;;;;;4975279;28;20503;-82
2023/09/05 10:19:24;;;;;;;2.30;2.10;;;;;;;;;;4975272;28;20423;-82
2023/09/05 10:21:51;;;;;;;2.23;2.00;;;;;;;;;;4975095;28;20442;-82
2023/09/05 10:24:17;;;;;;;2.13;1.83;;;;;;;;;;4975152;28;20515;-83
2023/09/05 10:26:43;;;;;;;1.87;1.77;;;;;;;;;;4974808;28;20808;-82
2023/09/05 10:29:28;;;;;;;2.90;1.47;;;;;;;;;;4975052;28;20427;-83
2023/09/05 10:31:54;;;;;;;2.33;1.73;;;;;;;;;;4973825;28;20795;-83
2023/09/05 10:34:20;;;;;;;1.33;1.23;;;;;;;;;;4974966;28;20477;-83
2023/09/05 10:36:46;;;;;;;2.10;1.90;;;;;;;;;;4974974;28;20266;-83
2023/09/05 10:39:25;;;;;;;2.27;1.80;;;;;;;;;;4975029;28;20505;-82
2023/09/05 10:41:51;;;;;;;1.37;1.27;;;;;;;;;;4974637;28;20403;-83
2023/09/05 10:44:17;;;;;;;1.97;1.50;;;;;;;;;;4974892;28;20534;-83
2023/09/05 10:46:43;;;;;;;2.07;1.80;;;;;;;;;;4973865;28;20403;-83
2023/09/05 10:49:14;;;;;;;3.17;1.83;;;;;;;;;;4973532;28;20415;-82
2023/09/05 10:51:59;;;;;;;1.73;1.60;;;;;;;;;;4974709;28;20168;-83
2023/09/05 10:54:28;;;;;;;1.50;1.40;;;;;;;;;;4974374;28;20470;-83
2023/09/05 10:56:54;;;;;;;2.10;1.57;;;;;;;;;;4974648;28;20407;-83
2023/09/05 10:59:27;;;;;;;2.50;1.60;;;;;;;;;;4974575;28;20763;-82
2023/09/05 11:02:00;;;;;;;2.40;1.47;;;;;;;;;;4974626;28;20752;-82
2023/09/05 11:04:27;;;;;;;2.33;1.57;;;;;;;;;;4974492;28;20403;-83
2023/09/05 11:06:54;;;;;;;2.37;1.00;;;;;;;;;;4974444;28;20411;-83
2023/09/05 11:09:20;;;;;;;2.10;1.07;;;;;;;;;;4974230;28;20510;-83
2023/09/05 11:11:46;;;;;;;2.77;1.70;;;;;;;;;;4974190;28;20514;-83
2023/09/05 11:14:12;;;;;;;4.00;1.67;;;;;;;;;;4974356;28;20211;-82
2023/09/05 11:16:49;;;;;;;1.30;1.20;;;;;;;;;;4974380;28;20266;-82
2023/09/05 11:19:35;;;;;;;1.73;1.63;;;;;;;;;;4974411;28;20238;-82
2023/09/05 11:22:11;;;;;;;1.57;1.47;;;;;;;;;;4974310;28;20410;-83
2023/09/05 11:24:46;;;;;;;2.37;1.70;;;;;;;;;;4973907;28;20418;-83
2023/09/05 11:27:12;;;;;;;1.73;1.13;;;;;;;;;;4974257;28;20429;-83
2023/09/05 11:29:39;;;;;;;4.63;1.13;;;;;;;;;;4974119;28;20431;-83
2023/09/05 11:32:06;;;;;;;2.37;1.30;;;;;;;;;;4974275;28;20429;-83
2023/09/05 11:34:33;;;;;;;1.93;1.60;;;;;;;;;;4974141;28;20885;-82
2023/09/05 11:36:59;;;;;;;1.87;1.33;;;;;;;;;;4974214;28;20400;-82
2023/09/05 11:39:27;;;;;;;2.60;1.10;;;;;;;;;;4973719;28;20799;-82
2023/09/05 11:41:57;;;;;;;2.30;1.00;;;;;;;;;;4974073;28;20410;-82
2023/09/05 11:44:32;;;;;;;1.87;0.97;;;;;;;;;;4974139;28;20411;-83
2023/09/05 11:46:59;;;;;;;1.30;1.20;;;;;;;;;;4974104;28;20474;-83
2023/09/05 11:49:25;;;;;;;1.48;1.38;;;;;;;;;;4973942;28;20923;-83
2023/09/05 11:51:51;;;;;;;1.17;1.02;;;;;;;;;;4974054;28;20202;-83
2023/09/05 11:54:17;;;;;;;1.00;0.83;;;;;;;;;;4973574;28;20536;-82
2023/09/05 11:56:43;;;;;;;1.10;1.00;;;;;;;;;;4973985;28;20450;-82
2023/09/05 11:59:09;;;;;;;1.00;0.90;;;;;;;;;;4977392;28;20275;-83
2023/09/05 12:01:35;;;;;;;1.20;0.93;;;;;;;;;;4976666;28;20171;-83
2023/09/05 12:04:04;;;;;;;1.40;1.00;;;;;;;;;;4977641;28;20714;-82
2023/09/05 12:06:34;;;;;;;1.17;0.83;;;;;;;;;;4977582;28;20694;-81
2023/09/05 12:09:00;;;;;;;4.57;1.17;;;;;;;;;;4977697;28;20451;-81
2023/09/05 12:11:26;;;;;;;1.00;0.83;;;;;;;;;;4977114;28;20550;-82
2023/09/05 12:13:56;;;;;;;1.53;1.20;;;;;;;;;;4977464;28;20450;-82
2023/09/05 12:16:22;;;;;;;1.92;1.50;;;;;;;;;;4977409;28;20415;-82
2023/09/05 12:18:48;;;;;;;0.93;0.93;;;;;;;;;;4977522;28;20411;-82
2023/09/05 12:21:14;;;;;;;1.92;1.45;;;;;;;;;;4977429;28;20191;-83
2023/09/05 12:23:40;;;;;;;1.55;1.45;;;;;;;;;;4977381;28;20209;-83
2023/09/05 12:26:07;;;;;;;1.40;1.30;;;;;;;;;;4976966;28;20248;-82
2023/09/05 12:28:34;;;;;;;4.40;1.40;;;;;;;;;;4977212;28;20208;-82
2023/09/05 12:31:07;;;;;;;1.30;1.20;;;;;;;;;;4977213;28;20790;-82
2023/09/05 12:33:33;;;;;;;1.60;1.10;;;;;;;;;;4977166;28;20766;-82
2023/09/05 12:35:59;;;;;;;1.05;0.95;;;;;;;;;;4977084;28;20187;-82
2023/09/05 12:38:25;;;;;;;1.25;1.15;;;;;;;;;;4977137;28;20199;-82
2023/09/05 12:40:51;;;;;;;1.60;1.50;;;;;;;;;;4976710;28;20210;-82
2023/09/05 12:43:17;;;;;;;1.50;1.15;;;;;;;;;;4975913;28;20569;-83
2023/09/05 12:45:43;;;;;;;1.58;1.48;;;;;;;;;;4977031;28;20632;-82
2023/09/05 12:48:09;;;;;;;1.80;1.30;;;;;;;;;;4977028;28;20183;-82
2023/09/05 12:50:37;;;;;;;1.25;1.13;;;;;;;;;;4976927;28;20175;-81
2023/09/05 12:53:04;;;;;;;2.25;1.23;;;;;;;;;;4976889;28;20195;-82
2023/09/05 12:55:32;;;;;;;1.45;1.17;;;;;;;;;;4976447;28;20261;-82
2023/09/05 12:57:58;;;;;;;1.80;0.88;;;;;;;;;;4976826;28;20179;-82
2023/09/05 13:00:24;;;;;;;4.00;1.40;;;;;;;;;;4976708;28;20517;-82
2023/09/05 13:02:50;;;;;;;2.17;1.17;;;;;;;;;;4976799;28;20403;-82
2023/09/05 13:05:16;;;;;;;2.40;0.90;;;;;;;;;;4976680;28;20276;-82
2023/09/05 13:07:42;;;;;;;2.33;1.30;;;;;;;;;;4976531;28;20267;-82
2023/09/05 13:10:09;;;;;;;3.30;1.03;;;;;;;;;;4975059;28;20219;-82
2023/09/05 13:12:35;;;;;;;1.00;0.82;;;;;;;;;;4976512;28;20418;-82
2023/09/05 13:15:01;;;;;;;2.22;1.05;;;;;;;;;;4976426;28;20471;-81
2023/09/05 13:17:27;;;;;;;1.30;1.20;;;;;;;;;;4976434;28;20403;-82
2023/09/05 13:19:53;;;;;;;1.95;1.13;;;;;;;;;;4975081;28;20179;-82
2023/09/05 13:22:19;;;;;;;1.10;1.00;;;;;;;;;;4976270;28;20175;-82
2023/09/05 13:24:45;;;;;;;1.35;1.08;;;;;;;;;;4975858;28;20674;-83
2023/09/05 13:27:12;;;;;;;1.30;0.93;;;;;;;;;;4976274;28;20223;-83
2023/09/05 13:29:38;;;;;;;1.27;1.10;;;;;;;;;;4976278;28;20420;-82
2023/09/05 13:32:08;;;;;;;1.63;0.77;;;;;;;;;;4976150;28;20837;-82
2023/09/05 13:34:34;;;;;;;1.43;0.60;;;;;;;;;;4976018;28;20498;-82
2023/09/05 13:37:01;;;;;;;1.10;0.40;;;;;;;;;;4974810;28;20427;-82
2023/09/05 13:39:27;;;;;;;1.87;0.60;;;;;;;;;;4975702;28;20425;-82
2023/09/05 13:41:55;;;;;;;2.10;0.50;;;;;;;;;;4975981;28;20926;-82
2023/09/05 13:44:21;;;;;;;1.70;0.53;;;;;;;;;;4974710;28;20184;-81
2023/09/05 13:46:50;;;;;;;1.03;0.27;;;;;;;;;;4975825;28;20415;-82
2023/09/05 13:49:15;;;;;;;2.77;1.13;;;;;;;;;;4975767;28;20498;-82
2023/09/05 13:51:41;;;;;;;0.90;0.30;;;;;;;;;;4975785;28;20467;-81
2023/09/05 13:54:07;;;;;;;0.77;0.20;;;;;;;;;;4975333;28;20720;-81
2023/09/05 13:56:33;;;;;;;2.77;1.27;;;;;;;;;;4975643;28;20194;-81
2023/09/05 13:58:59;;;;;;;1.07;0.57;;;;;;;;;;4975636;28;20176;-82
2023/09/05 14:01:25;;;;;;;2.03;0.40;;;;;;;;;;4975485;28;20629;-82
2023/09/05 14:03:51;;;;;;;0.63;0.50;;;;;;;;;;4975497;28;20251;-81
2023/09/05 14:06:17;;;;;;;1.50;0.23;;;;;;;;;;4975451;28;20176;-81
2023/09/05 14:08:43;;;;;;;2.23;0.30;;;;;;;;;;4975364;28;20168;-80
2023/09/05 14:11:09;;;;;;;1.37;0.43;;;;;;;;;;4974985;28;20474;-82
2023/09/05 14:13:35;;;;;;;3.00;0.70;;;;;;;;;;4975267;28;20416;-82
2023/09/05 14:16:02;;;;;;;0.90;0.40;;;;;;;;;;4975376;28;20426;-81
2023/09/05 14:18:28;;;;;;;2.70;0.40;;;;;;;;;;4974109;28;20419;-81
2023/09/05 14:20:54;;;;;;;1.77;0.60;;;;;;;;;;4975033;28;20420;-82
2023/09/05 14:23:20;;;;;;;2.90;0.40;;;;;;;;;;4974089;28;20591;-81
2023/09/05 14:25:48;;;;;;;1.00;0.40;;;;;;;;;;4974836;28;20437;-81
2023/09/05 14:28:14;;;;;;;1.40;0.50;;;;;;;;;;4975127;28;20180;-81
2023/09/05 14:30:40;;;;;;;0.80;0.30;;;;;;;;;;4975025;28;20423;-81
2023/09/05 14:33:08;;;;;;;1.20;0.40;;;;;;;;;;4975036;28;20181;-81
2023/09/05 14:35:35;;;;;;;1.27;0.60;;;;;;;;;;4974889;28;20799;-82
2023/09/05 14:38:00;;;;;;;1.60;0.23;;;;;;;;;;4974991;28;20422;-82
2023/09/05 14:40:28;;;;;;;2.20;0.53;;;;;;;;;;4974597;28;20506;-82